Charles, Georgia
Current Conditions -  °F | °C
As of 4:15 PM on Saturday 22 Nov 2014 (Local Time) from KVDI Reporting Station
Overcast Overcast  
Wind Chill: 64°   Ceiling: 4300
Heat Index: 64°   Visibility: 10mi
Dew Point: 52°   Wind: 9mph
Humidity: 64%   Direction: 120°ESE
Pressure: 30.29"   Gusts: NA
Location:  32.1357°N, 82.4052°W
Report Text: KVDI 222115Z AUTO 12008KT 10SM OVC043 18/11 A3029 RMK AO2
Loading
Personal Weather Stations






























Interactive Weather Map New forecast layout! Learn more

10-Day Weather Forecast

Advertisements
Track Severe Weather on mobile